createdAt,value
2017-03-14T00:08:19.498Z,0
2017-03-14T00:18:30.832Z,0
2017-03-14T00:28:42.129Z,0
2017-03-14T00:38:53.493Z,0
2017-03-14T00:49:04.898Z,0
2017-03-14T00:59:16.274Z,0
2017-03-14T01:09:27.641Z,0
2017-03-14T01:19:39.030Z,0
2017-03-14T01:29:50.473Z,0
2017-03-14T01:40:01.918Z,0
2017-03-14T01:50:13.341Z,0
2017-03-14T02:00:24.736Z,0
2017-03-14T02:10:36.130Z,0
2017-03-14T02:20:47.556Z,0
2017-03-14T02:30:59.027Z,0
2017-03-14T02:41:10.494Z,0
2017-03-14T02:51:21.945Z,0
2017-03-14T03:01:33.464Z,0
2017-03-14T03:11:44.957Z,0
2017-03-14T03:21:56.498Z,0
2017-03-14T03:32:08.010Z,0
2017-03-14T03:42:19.589Z,0
2017-03-14T03:52:31.181Z,0
2017-03-14T04:02:42.824Z,0
2017-03-14T04:12:54.433Z,0
2017-03-14T04:23:05.989Z,0
2017-03-14T04:33:17.492Z,0
2017-03-14T04:43:29.050Z,0
2017-03-14T04:53:40.626Z,0
2017-03-14T05:03:52.189Z,0
2017-03-14T05:14:03.719Z,0
2017-03-14T05:24:15.262Z,0
2017-03-14T05:34:26.830Z,0
2017-03-14T05:44:38.386Z,0
2017-03-14T05:54:49.992Z,0
2017-03-14T06:05:01.578Z,0
2017-03-14T06:15:13.150Z,0
2017-03-14T06:25:24.632Z,0
2017-03-14T06:35:36.093Z,0
2017-03-14T06:45:47.504Z,0
2017-03-14T06:55:58.866Z,0
2017-03-14T07:06:10.129Z,100
2017-03-14T07:16:21.433Z,0
2017-03-14T07:26:32.642Z,100
2017-03-14T07:36:43.700Z,100
2017-03-14T07:46:54.466Z,100
2017-03-14T07:57:05.300Z,100
2017-03-14T08:07:16.204Z,100
2017-03-14T08:17:27.069Z,100
2017-03-14T08:27:37.856Z,100
2017-03-14T08:37:48.503Z,100
2017-03-14T08:47:59.125Z,100
2017-03-14T08:58:09.729Z,100
2017-03-14T09:08:20.350Z,100
2017-03-14T09:18:30.889Z,100
2017-03-14T09:28:41.364Z,100
2017-03-14T09:38:51.723Z,99.3
2017-03-14T09:49:01.868Z,96.8
2017-03-14T09:59:11.709Z,92.3
2017-03-14T10:09:21.089Z,89.8
2017-03-14T10:19:30.394Z,90
2017-03-14T10:29:39.714Z,87.6
2017-03-14T10:39:48.949Z,86.3
2017-03-14T10:49:58.192Z,82.6
2017-03-14T11:00:07.387Z,81.4
2017-03-14T11:10:16.607Z,77.7
2017-03-14T11:20:25.774Z,77
2017-03-14T11:30:34.871Z,75.2
2017-03-14T11:40:43.953Z,75.1
2017-03-14T11:50:53.088Z,74.5
2017-03-14T12:01:02.126Z,73.2
2017-03-14T12:11:11.257Z,71.8
2017-03-14T12:21:20.399Z,71.2
2017-03-14T12:31:29.508Z,71.9
2017-03-14T12:41:38.641Z,71.2
2017-03-14T12:51:47.867Z,72.3
2017-03-14T13:01:57.075Z,69.2
2017-03-14T13:12:06.182Z,70.6
2017-03-14T13:22:15.237Z,70.2
2017-03-14T13:32:24.275Z,67.2
2017-03-14T13:42:33.271Z,67.7
2017-03-14T13:52:42.242Z,67.4
2017-03-14T14:02:51.095Z,68
2017-03-14T14:12:59.891Z,65.3
2017-03-14T14:23:08.668Z,66.6
2017-03-14T14:33:17.655Z,67.8
2017-03-14T14:43:26.721Z,66.9
2017-03-14T14:53:35.888Z,68.8
2017-03-14T15:03:45.210Z,68.3
2017-03-14T15:13:54.594Z,68.9
2017-03-14T15:24:04.082Z,69.1
2017-03-14T15:34:13.584Z,68.7
2017-03-14T15:44:23.117Z,68.5
2017-03-14T15:54:32.700Z,68.2
2017-03-14T16:04:42.417Z,68.2
2017-03-14T16:14:52.162Z,68.7
2017-03-14T16:25:01.953Z,69.6
2017-03-14T16:35:11.782Z,70.8
2017-03-14T16:45:21.642Z,71.6
2017-03-14T16:55:31.594Z,70.5
2017-03-14T17:05:41.605Z,70.4
2017-03-14T17:15:51.676Z,72.4
2017-03-14T17:26:01.792Z,73.7
2017-03-14T17:36:11.946Z,74.6
2017-03-14T17:46:22.174Z,75.7
2017-03-14T17:56:32.422Z,75.3
2017-03-14T18:06:42.606Z,76.5
2017-03-14T18:16:52.793Z,76.4
2017-03-14T18:27:03.000Z,77.8
2017-03-14T18:37:13.234Z,79.1
2017-03-14T18:47:23.481Z,79.7
2017-03-14T18:57:33.821Z,81.9
2017-03-14T19:07:44.173Z,84.5
2017-03-14T19:17:54.629Z,87
2017-03-14T19:28:05.082Z,91.8
2017-03-14T19:38:15.594Z,94.1
2017-03-14T19:48:26.134Z,98.5
2017-03-14T19:58:36.689Z,100
2017-03-14T20:08:47.284Z,100
2017-03-14T20:18:57.918Z,100
2017-03-14T20:29:08.564Z,100
2017-03-14T20:39:19.223Z,100
2017-03-14T20:49:29.937Z,100
2017-03-14T20:59:40.744Z,100
2017-03-14T21:09:51.511Z,100
2017-03-14T21:20:02.324Z,100
2017-03-14T21:30:13.141Z,100
2017-03-14T21:40:23.955Z,100
2017-03-14T21:50:34.807Z,100
2017-03-14T22:00:45.587Z,100
2017-03-14T22:10:56.356Z,100
2017-03-14T22:21:07.087Z,100
2017-03-14T22:31:17.870Z,100
2017-03-14T22:41:28.634Z,100
2017-03-14T22:51:39.395Z,100
2017-03-14T23:01:50.202Z,100
2017-03-14T23:12:01.051Z,100
2017-03-14T23:22:11.880Z,100
2017-03-14T23:32:22.745Z,100
2017-03-14T23:42:33.556Z,100
2017-03-14T23:52:44.367Z,100
